sensor_id;sensor_type;location;lat;lon;timestamp;P1;durP1;ratioP1;P2;durP2;ratioP2
3309;SDS011;1667;53.238;10.394;2023-02-10T00:01:43;41.77;;;16.20;;
3309;SDS011;1667;53.238;10.394;2023-02-10T00:06:42;34.93;;;15.30;;
3309;SDS011;1667;53.238;10.394;2023-02-10T00:11:41;40.07;;;15.40;;
3309;SDS011;1667;53.238;10.394;2023-02-10T00:16:58;38.13;;;18.03;;
3309;SDS011;1667;53.238;10.394;2023-02-10T00:21:57;34.63;;;14.40;;
3309;SDS011;1667;53.238;10.394;2023-02-10T00:26:56;33.50;;;15.00;;
3309;SDS011;1667;53.238;10.394;2023-02-10T00:31:54;34.03;;;14.10;;
3309;SDS011;1667;53.238;10.394;2023-02-10T00:36:53;32.27;;;12.40;;
3309;SDS011;1667;53.238;10.394;2023-02-10T00:41:52;34.07;;;14.17;;
3309;SDS011;1667;53.238;10.394;2023-02-10T00:46:51;35.27;;;14.70;;
3309;SDS011;1667;53.238;10.394;2023-02-10T00:51:49;27.17;;;13.50;;
3309;SDS011;1667;53.238;10.394;2023-02-10T00:56:49;34.60;;;13.57;;
3309;SDS011;1667;53.238;10.394;2023-02-10T01:01:48;44.17;;;17.40;;
3309;SDS011;1667;53.238;10.394;2023-02-10T01:06:47;39.47;;;15.77;;
3309;SDS011;1667;53.238;10.394;2023-02-10T01:11:45;45.03;;;16.70;;
3309;SDS011;1667;53.238;10.394;2023-02-10T01:16:45;34.93;;;16.90;;
3309;SDS011;1667;53.238;10.394;2023-02-10T01:21:43;37.67;;;17.83;;
3309;SDS011;1667;53.238;10.394;2023-02-10T01:26:42;33.57;;;14.63;;
3309;SDS011;1667;53.238;10.394;2023-02-10T01:31:41;37.43;;;14.70;;
3309;SDS011;1667;53.238;10.394;2023-02-10T01:36:41;44.73;;;16.10;;
3309;SDS011;1667;53.238;10.394;2023-02-10T01:41:39;37.60;;;16.90;;
3309;SDS011;1667;53.238;10.394;2023-02-10T01:46:38;46.83;;;15.37;;
3309;SDS011;1667;53.238;10.394;2023-02-10T01:51:38;39.73;;;15.47;;
3309;SDS011;1667;53.238;10.394;2023-02-10T01:56:42;32.60;;;14.90;;
3309;SDS011;1667;53.238;10.394;2023-02-10T02:01:42;32.93;;;15.83;;
3309;SDS011;1667;53.238;10.394;2023-02-10T02:06:40;27.60;;;13.30;;
3309;SDS011;1667;53.238;10.394;2023-02-10T02:11:43;32.80;;;16.43;;
3309;SDS011;1667;53.238;10.394;2023-02-10T02:16:52;29.83;;;13.90;;
3309;SDS011;1667;53.238;10.394;2023-02-10T02:22:03;30.13;;;15.10;;
3309;SDS011;1667;53.238;10.394;2023-02-10T02:33:02;31.27;;;12.80;;
3309;SDS011;1667;53.238;10.394;2023-02-10T02:38:06;36.17;;;15.37;;
3309;SDS011;1667;53.238;10.394;2023-02-10T02:43:04;27.53;;;12.33;;
3309;SDS011;1667;53.238;10.394;2023-02-10T02:48:07;28.23;;;12.60;;
3309;SDS011;1667;53.238;10.394;2023-02-10T02:53:18;31.60;;;14.53;;
3309;SDS011;1667;53.238;10.394;2023-02-10T02:58:26;31.07;;;13.00;;
3309;SDS011;1667;53.238;10.394;2023-02-10T03:03:32;40.43;;;14.90;;
3309;SDS011;1667;53.238;10.394;2023-02-10T03:08:33;30.30;;;14.73;;
3309;SDS011;1667;53.238;10.394;2023-02-10T03:13:34;30.30;;;14.67;;
3309;SDS011;1667;53.238;10.394;2023-02-10T03:18:34;29.90;;;12.87;;
3309;SDS011;1667;53.238;10.394;2023-02-10T03:23:32;37.70;;;14.67;;
3309;SDS011;1667;53.238;10.394;2023-02-10T03:28:31;33.70;;;15.93;;
3309;SDS011;1667;53.238;10.394;2023-02-10T03:33:30;24.20;;;12.83;;
3309;SDS011;1667;53.238;10.394;2023-02-10T03:38:30;27.47;;;13.17;;
3309;SDS011;1667;53.238;10.394;2023-02-10T03:43:29;28.83;;;12.87;;
3309;SDS011;1667;53.238;10.394;2023-02-10T03:48:28;31.33;;;16.00;;
3309;SDS011;1667;53.238;10.394;2023-02-10T03:53:32;36.83;;;14.80;;
3309;SDS011;1667;53.238;10.394;2023-02-10T03:58:35;29.20;;;14.17;;
3309;SDS011;1667;53.238;10.394;2023-02-10T04:03:34;31.13;;;13.47;;
3309;SDS011;1667;53.238;10.394;2023-02-10T04:08:34;30.23;;;13.73;;
3309;SDS011;1667;53.238;10.394;2023-02-10T04:13:33;27.57;;;13.10;;
3309;SDS011;1667;53.238;10.394;2023-02-10T04:18:32;34.60;;;15.30;;
3309;SDS011;1667;53.238;10.394;2023-02-10T04:23:31;37.43;;;15.97;;
3309;SDS011;1667;53.238;10.394;2023-02-10T04:28:31;32.23;;;16.10;;
3309;SDS011;1667;53.238;10.394;2023-02-10T04:33:30;34.93;;;16.87;;
3309;SDS011;1667;53.238;10.394;2023-02-10T04:38:28;29.00;;;15.60;;
3309;SDS011;1667;53.238;10.394;2023-02-10T04:43:29;27.63;;;11.60;;
3309;SDS011;1667;53.238;10.394;2023-02-10T04:48:27;30.47;;;15.13;;
3309;SDS011;1667;53.238;10.394;2023-02-10T04:53:26;29.33;;;15.27;;
3309;SDS011;1667;53.238;10.394;2023-02-10T04:58:24;32.90;;;15.30;;
3309;SDS011;1667;53.238;10.394;2023-02-10T05:03:24;32.60;;;15.43;;
3309;SDS011;1667;53.238;10.394;2023-02-10T05:08:23;31.63;;;14.27;;
3309;SDS011;1667;53.238;10.394;2023-02-10T05:13:21;24.63;;;12.97;;
3309;SDS011;1667;53.238;10.394;2023-02-10T05:18:20;28.60;;;10.43;;
3309;SDS011;1667;53.238;10.394;2023-02-10T05:23:20;24.37;;;10.67;;
3309;SDS011;1667;53.238;10.394;2023-02-10T05:28:19;28.90;;;10.10;;
3309;SDS011;1667;53.238;10.394;2023-02-10T05:33:18;21.43;;;10.40;;
3309;SDS011;1667;53.238;10.394;2023-02-10T05:38:17;33.67;;;11.90;;
3309;SDS011;1667;53.238;10.394;2023-02-10T05:43:17;35.67;;;13.67;;
3309;SDS011;1667;53.238;10.394;2023-02-10T05:48:15;32.03;;;14.00;;
3309;SDS011;1667;53.238;10.394;2023-02-10T05:53:14;27.97;;;13.70;;
3309;SDS011;1667;53.238;10.394;2023-02-10T05:58:12;30.23;;;12.57;;
3309;SDS011;1667;53.238;10.394;2023-02-10T06:03:12;33.13;;;14.17;;
3309;SDS011;1667;53.238;10.394;2023-02-10T06:08:11;33.57;;;14.73;;
3309;SDS011;1667;53.238;10.394;2023-02-10T06:13:10;27.13;;;14.10;;
3309;SDS011;1667;53.238;10.394;2023-02-10T06:18:08;32.53;;;13.40;;
3309;SDS011;1667;53.238;10.394;2023-02-10T06:23:08;26.57;;;14.23;;
3309;SDS011;1667;53.238;10.394;2023-02-10T06:28:07;30.20;;;12.97;;
3309;SDS011;1667;53.238;10.394;2023-02-10T06:33:06;30.53;;;15.20;;
3309;SDS011;1667;53.238;10.394;2023-02-10T06:38:04;34.53;;;14.07;;
3309;SDS011;1667;53.238;10.394;2023-02-10T06:43:04;26.63;;;12.50;;
3309;SDS011;1667;53.238;10.394;2023-02-10T06:48:03;31.03;;;14.17;;
3309;SDS011;1667;53.238;10.394;2023-02-10T06:53:02;29.03;;;13.50;;
3309;SDS011;1667;53.238;10.394;2023-02-10T06:58:01;34.60;;;13.20;;
3309;SDS011;1667;53.238;10.394;2023-02-10T07:03:01;22.93;;;13.87;;
3309;SDS011;1667;53.238;10.394;2023-02-10T07:08:00;40.93;;;15.70;;
3309;SDS011;1667;53.238;10.394;2023-02-10T07:13:00;29.93;;;12.20;;
3309;SDS011;1667;53.238;10.394;2023-02-10T07:17:58;32.50;;;14.07;;
3309;SDS011;1667;53.238;10.394;2023-02-10T07:22:59;40.07;;;11.33;;
3309;SDS011;1667;53.238;10.394;2023-02-10T07:27:57;32.50;;;14.23;;
3309;SDS011;1667;53.238;10.394;2023-02-10T07:32:56;31.90;;;14.43;;
3309;SDS011;1667;53.238;10.394;2023-02-10T07:37:56;35.00;;;13.83;;
3309;SDS011;1667;53.238;10.394;2023-02-10T07:42:56;33.27;;;14.30;;
3309;SDS011;1667;53.238;10.394;2023-02-10T07:48:06;39.00;;;15.37;;
3309;SDS011;1667;53.238;10.394;2023-02-10T07:53:05;24.03;;;11.20;;
3309;SDS011;1667;53.238;10.394;2023-02-10T07:58:05;33.00;;;14.73;;
3309;SDS011;1667;53.238;10.394;2023-02-10T08:03:04;38.47;;;17.70;;
3309;SDS011;1667;53.238;10.394;2023-02-10T08:08:03;44.40;;;15.27;;
3309;SDS011;1667;53.238;10.394;2023-02-10T08:13:01;33.80;;;16.83;;
3309;SDS011;1667;53.238;10.394;2023-02-10T08:18:01;41.63;;;17.33;;
3309;SDS011;1667;53.238;10.394;2023-02-10T08:23:00;39.20;;;15.90;;
3309;SDS011;1667;53.238;10.394;2023-02-10T08:27:58;37.80;;;14.63;;
3309;SDS011;1667;53.238;10.394;2023-02-10T08:32:57;26.53;;;13.80;;
3309;SDS011;1667;53.238;10.394;2023-02-10T08:37:57;33.17;;;14.07;;
3309;SDS011;1667;53.238;10.394;2023-02-10T08:42:56;45.07;;;17.80;;
3309;SDS011;1667;53.238;10.394;2023-02-10T08:47:56;26.57;;;15.00;;
3309;SDS011;1667;53.238;10.394;2023-02-10T08:52:54;38.00;;;17.00;;
3309;SDS011;1667;53.238;10.394;2023-02-10T08:57:54;36.70;;;16.50;;
3309;SDS011;1667;53.238;10.394;2023-02-10T09:02:52;31.37;;;15.50;;
3309;SDS011;1667;53.238;10.394;2023-02-10T09:07:51;32.13;;;14.10;;
3309;SDS011;1667;53.238;10.394;2023-02-10T09:12:49;28.60;;;15.57;;
3309;SDS011;1667;53.238;10.394;2023-02-10T09:17:49;29.20;;;14.57;;
3309;SDS011;1667;53.238;10.394;2023-02-10T09:22:48;40.80;;;15.07;;
3309;SDS011;1667;53.238;10.394;2023-02-10T09:27:46;28.10;;;14.63;;
3309;SDS011;1667;53.238;10.394;2023-02-10T09:32:45;38.20;;;14.47;;
3309;SDS011;1667;53.238;10.394;2023-02-10T09:37:45;34.07;;;14.30;;
3309;SDS011;1667;53.238;10.394;2023-02-10T09:42:47;31.90;;;14.77;;
3309;SDS011;1667;53.238;10.394;2023-02-10T09:48:08;31.20;;;14.03;;
3309;SDS011;1667;53.238;10.394;2023-02-10T09:53:26;33.77;;;14.17;;
3309;SDS011;1667;53.238;10.394;2023-02-10T09:58:28;32.70;;;14.57;;
3309;SDS011;1667;53.238;10.394;2023-02-10T10:03:34;42.37;;;14.80;;
3309;SDS011;1667;53.238;10.394;2023-02-10T10:08:44;29.80;;;13.50;;
3309;SDS011;1667;53.238;10.394;2023-02-10T10:13:48;28.93;;;13.40;;
3309;SDS011;1667;53.238;10.394;2023-02-10T10:18:55;34.87;;;15.60;;
3309;SDS011;1667;53.238;10.394;2023-02-10T10:24:06;36.77;;;14.80;;
3309;SDS011;1667;53.238;10.394;2023-02-10T10:29:27;37.53;;;14.67;;
3309;SDS011;1667;53.238;10.394;2023-02-10T10:34:33;25.07;;;9.90;;
3309;SDS011;1667;53.238;10.394;2023-02-10T10:39:39;37.30;;;12.90;;
3309;SDS011;1667;53.238;10.394;2023-02-10T10:44:40;24.17;;;12.40;;
3309;SDS011;1667;53.238;10.394;2023-02-10T10:49:40;26.77;;;14.10;;
3309;SDS011;1667;53.238;10.394;2023-02-10T10:54:40;22.47;;;12.33;;
3309;SDS011;1667;53.238;10.394;2023-02-10T10:59:39;32.07;;;13.13;;
3309;SDS011;1667;53.238;10.394;2023-02-10T11:04:42;23.70;;;11.70;;
3309;SDS011;1667;53.238;10.394;2023-02-10T11:09:47;27.03;;;12.97;;
3309;SDS011;1667;53.238;10.394;2023-02-10T11:14:48;18.43;;;8.70;;
3309;SDS011;1667;53.238;10.394;2023-02-10T11:19:54;26.30;;;10.47;;
3309;SDS011;1667;53.238;10.394;2023-02-10T11:24:56;20.77;;;8.83;;
3309;SDS011;1667;53.238;10.394;2023-02-10T11:29:57;16.13;;;8.70;;
3309;SDS011;1667;53.238;10.394;2023-02-10T11:35:01;22.43;;;10.50;;
3309;SDS011;1667;53.238;10.394;2023-02-10T11:40:16;23.20;;;8.73;;
3309;SDS011;1667;53.238;10.394;2023-02-10T11:45:18;10.70;;;5.50;;
3309;SDS011;1667;53.238;10.394;2023-02-10T11:50:19;14.47;;;7.93;;
3309;SDS011;1667;53.238;10.394;2023-02-10T11:55:23;13.03;;;8.50;;
3309;SDS011;1667;53.238;10.394;2023-02-10T12:00:32;18.17;;;8.13;;
3309;SDS011;1667;53.238;10.394;2023-02-10T12:05:35;20.40;;;9.20;;
3309;SDS011;1667;53.238;10.394;2023-02-10T12:10:40;15.67;;;7.07;;
3309;SDS011;1667;53.238;10.394;2023-02-10T12:15:46;17.07;;;7.37;;
3309;SDS011;1667;53.238;10.394;2023-02-10T12:20:58;24.47;;;10.83;;
3309;SDS011;1667;53.238;10.394;2023-02-10T12:26:14;20.50;;;11.40;;
3309;SDS011;1667;53.238;10.394;2023-02-10T12:31:23;15.80;;;8.70;;
3309;SDS011;1667;53.238;10.394;2023-02-10T12:36:33;12.30;;;6.97;;
3309;SDS011;1667;53.238;10.394;2023-02-10T12:41:44;13.63;;;6.20;;
3309;SDS011;1667;53.238;10.394;2023-02-10T12:46:52;13.27;;;7.20;;
3309;SDS011;1667;53.238;10.394;2023-02-10T12:52:05;10.60;;;4.57;;
3309;SDS011;1667;53.238;10.394;2023-02-10T12:57:08;13.53;;;7.57;;
3309;SDS011;1667;53.238;10.394;2023-02-10T13:02:11;15.33;;;7.60;;
3309;SDS011;1667;53.238;10.394;2023-02-10T13:07:16;14.63;;;7.30;;
3309;SDS011;1667;53.238;10.394;2023-02-10T13:12:25;14.43;;;8.07;;
3309;SDS011;1667;53.238;10.394;2023-02-10T13:17:25;11.73;;;7.50;;
3309;SDS011;1667;53.238;10.394;2023-02-10T13:22:38;17.53;;;7.70;;
3309;SDS011;1667;53.238;10.394;2023-02-10T13:27:46;14.00;;;7.27;;
3309;SDS011;1667;53.238;10.394;2023-02-10T13:32:54;21.90;;;8.53;;
3309;SDS011;1667;53.238;10.394;2023-02-10T13:37:59;15.70;;;6.47;;
3309;SDS011;1667;53.238;10.394;2023-02-10T13:43:17;10.30;;;7.13;;
3309;SDS011;1667;53.238;10.394;2023-02-10T13:48:23;11.90;;;5.10;;
3309;SDS011;1667;53.238;10.394;2023-02-10T13:53:27;23.37;;;7.43;;
3309;SDS011;1667;53.238;10.394;2023-02-10T13:58:35;20.60;;;7.23;;
3309;SDS011;1667;53.238;10.394;2023-02-10T14:03:53;13.23;;;7.37;;
3309;SDS011;1667;53.238;10.394;2023-02-10T14:09:00;19.80;;;7.97;;
3309;SDS011;1667;53.238;10.394;2023-02-10T14:14:03;13.13;;;4.73;;
3309;SDS011;1667;53.238;10.394;2023-02-10T14:19:20;20.80;;;8.60;;
3309;SDS011;1667;53.238;10.394;2023-02-10T14:24:22;16.40;;;7.73;;
3309;SDS011;1667;53.238;10.394;2023-02-10T14:29:29;14.50;;;8.63;;
3309;SDS011;1667;53.238;10.394;2023-02-10T14:34:32;15.63;;;8.10;;
3309;SDS011;1667;53.238;10.394;2023-02-10T14:39:31;26.73;;;9.50;;
3309;SDS011;1667;53.238;10.394;2023-02-10T14:44:33;19.33;;;6.57;;
3309;SDS011;1667;53.238;10.394;2023-02-10T14:49:35;19.10;;;7.57;;
3309;SDS011;1667;53.238;10.394;2023-02-10T14:54:35;7.20;;;4.33;;
3309;SDS011;1667;53.238;10.394;2023-02-10T14:59:38;18.53;;;8.27;;
3309;SDS011;1667;53.238;10.394;2023-02-10T15:04:39;16.23;;;6.57;;
3309;SDS011;1667;53.238;10.394;2023-02-10T15:09:40;19.80;;;10.17;;
3309;SDS011;1667;53.238;10.394;2023-02-10T15:14:42;20.13;;;8.70;;
3309;SDS011;1667;53.238;10.394;2023-02-10T15:19:51;16.63;;;8.97;;
3309;SDS011;1667;53.238;10.394;2023-02-10T15:24:53;13.93;;;7.40;;
3309;SDS011;1667;53.238;10.394;2023-02-10T15:29:53;18.93;;;9.67;;
3309;SDS011;1667;53.238;10.394;2023-02-10T15:34:52;15.53;;;8.03;;
3309;SDS011;1667;53.238;10.394;2023-02-10T15:39:54;20.67;;;8.50;;
3309;SDS011;1667;53.238;10.394;2023-02-10T15:45:03;19.70;;;7.57;;
3309;SDS011;1667;53.238;10.394;2023-02-10T15:50:11;23.97;;;10.90;;
3309;SDS011;1667;53.238;10.394;2023-02-10T15:55:13;17.50;;;9.00;;
3309;SDS011;1667;53.238;10.394;2023-02-10T16:00:17;19.13;;;9.33;;
3309;SDS011;1667;53.238;10.394;2023-02-10T16:05:20;34.20;;;10.40;;
3309;SDS011;1667;53.238;10.394;2023-02-10T16:10:20;20.30;;;10.93;;
3309;SDS011;1667;53.238;10.394;2023-02-10T16:15:22;18.47;;;7.73;;
3309;SDS011;1667;53.238;10.394;2023-02-10T16:20:23;20.83;;;11.70;;
3309;SDS011;1667;53.238;10.394;2023-02-10T16:25:23;23.40;;;11.40;;
3309;SDS011;1667;53.238;10.394;2023-02-10T16:30:26;22.90;;;11.60;;
3309;SDS011;1667;53.238;10.394;2023-02-10T16:35:26;44.00;;;14.03;;
3309;SDS011;1667;53.238;10.394;2023-02-10T16:40:25;22.93;;;9.30;;
3309;SDS011;1667;53.238;10.394;2023-02-10T16:45:28;26.70;;;12.13;;
3309;SDS011;1667;53.238;10.394;2023-02-10T16:50:29;26.73;;;12.70;;
3309;SDS011;1667;53.238;10.394;2023-02-10T16:55:30;21.47;;;11.80;;
3309;SDS011;1667;53.238;10.394;2023-02-10T17:00:30;31.53;;;11.93;;
3309;SDS011;1667;53.238;10.394;2023-02-10T17:05:29;29.70;;;12.70;;
3309;SDS011;1667;53.238;10.394;2023-02-10T17:10:30;26.97;;;12.17;;
3309;SDS011;1667;53.238;10.394;2023-02-10T17:15:30;30.30;;;13.20;;
3309;SDS011;1667;53.238;10.394;2023-02-10T17:20:30;27.77;;;11.10;;
3309;SDS011;1667;53.238;10.394;2023-02-10T17:25:31;28.60;;;11.90;;
3309;SDS011;1667;53.238;10.394;2023-02-10T17:30:32;37.70;;;12.80;;
3309;SDS011;1667;53.238;10.394;2023-02-10T17:35:36;32.87;;;16.20;;
3309;SDS011;1667;53.238;10.394;2023-02-10T17:40:34;38.23;;;15.30;;
3309;SDS011;1667;53.238;10.394;2023-02-10T17:45:36;34.53;;;15.33;;
3309;SDS011;1667;53.238;10.394;2023-02-10T17:50:35;37.47;;;17.60;;
3309;SDS011;1667;53.238;10.394;2023-02-10T17:55:33;37.63;;;16.97;;
3309;SDS011;1667;53.238;10.394;2023-02-10T18:00:32;40.53;;;17.80;;
3309;SDS011;1667;53.238;10.394;2023-02-10T18:05:32;34.47;;;16.30;;
3309;SDS011;1667;53.238;10.394;2023-02-10T18:10:31;37.50;;;16.47;;
3309;SDS011;1667;53.238;10.394;2023-02-10T18:15:32;32.97;;;16.87;;
3309;SDS011;1667;53.238;10.394;2023-02-10T18:20:32;33.20;;;18.00;;
3309;SDS011;1667;53.238;10.394;2023-02-10T18:25:31;33.33;;;15.93;;
3309;SDS011;1667;53.238;10.394;2023-02-10T18:30:30;42.87;;;17.33;;
3309;SDS011;1667;53.238;10.394;2023-02-10T18:35:29;33.80;;;16.43;;
3309;SDS011;1667;53.238;10.394;2023-02-10T18:40:31;33.50;;;15.80;;
3309;SDS011;1667;53.238;10.394;2023-02-10T18:45:30;40.50;;;17.60;;
3309;SDS011;1667;53.238;10.394;2023-02-10T18:50:28;36.00;;;17.53;;
3309;SDS011;1667;53.238;10.394;2023-02-10T18:55:28;41.00;;;16.97;;
3309;SDS011;1667;53.238;10.394;2023-02-10T19:00:28;33.27;;;15.53;;
3309;SDS011;1667;53.238;10.394;2023-02-10T19:05:27;35.23;;;15.63;;
3309;SDS011;1667;53.238;10.394;2023-02-10T19:10:25;33.67;;;16.10;;
3309;SDS011;1667;53.238;10.394;2023-02-10T19:15:24;29.47;;;15.17;;
3309;SDS011;1667;53.238;10.394;2023-02-10T19:20:24;28.97;;;14.80;;
3309;SDS011;1667;53.238;10.394;2023-02-10T19:25:22;32.17;;;14.63;;
3309;SDS011;1667;53.238;10.394;2023-02-10T19:30:21;27.70;;;13.90;;
3309;SDS011;1667;53.238;10.394;2023-02-10T19:35:20;32.20;;;14.63;;
3309;SDS011;1667;53.238;10.394;2023-02-10T19:40:20;30.87;;;14.47;;
3309;SDS011;1667;53.238;10.394;2023-02-10T19:45:19;30.30;;;12.47;;
3309;SDS011;1667;53.238;10.394;2023-02-10T19:50:17;26.83;;;13.60;;
3309;SDS011;1667;53.238;10.394;2023-02-10T19:55:16;33.90;;;16.03;;
3309;SDS011;1667;53.238;10.394;2023-02-10T20:00:16;30.93;;;15.27;;
3309;SDS011;1667;53.238;10.394;2023-02-10T20:05:16;37.37;;;16.40;;
3309;SDS011;1667;53.238;10.394;2023-02-10T20:10:14;31.47;;;14.13;;
3309;SDS011;1667;53.238;10.394;2023-02-10T20:15:13;26.50;;;12.17;;
3309;SDS011;1667;53.238;10.394;2023-02-10T20:20:13;29.57;;;12.97;;
3309;SDS011;1667;53.238;10.394;2023-02-10T20:25:12;31.63;;;13.40;;
3309;SDS011;1667;53.238;10.394;2023-02-10T20:30:10;31.37;;;14.40;;
3309;SDS011;1667;53.238;10.394;2023-02-10T20:35:09;36.83;;;13.67;;
3309;SDS011;1667;53.238;10.394;2023-02-10T20:40:09;32.63;;;13.03;;
3309;SDS011;1667;53.238;10.394;2023-02-10T20:45:08;21.10;;;9.70;;
3309;SDS011;1667;53.238;10.394;2023-02-10T20:50:06;35.13;;;17.73;;
3309;SDS011;1667;53.238;10.394;2023-02-10T20:55:05;33.13;;;14.60;;
3309;SDS011;1667;53.238;10.394;2023-02-10T21:00:06;28.60;;;13.20;;
3309;SDS011;1667;53.238;10.394;2023-02-10T21:05:06;31.90;;;9.57;;
3309;SDS011;1667;53.238;10.394;2023-02-10T21:10:06;22.93;;;8.10;;
3309;SDS011;1667;53.238;10.394;2023-02-10T21:15:06;30.60;;;11.93;;
3309;SDS011;1667;53.238;10.394;2023-02-10T21:20:05;36.83;;;14.67;;
3309;SDS011;1667;53.238;10.394;2023-02-10T21:25:05;30.23;;;12.53;;
3309;SDS011;1667;53.238;10.394;2023-02-10T21:30:09;31.70;;;13.17;;
3309;SDS011;1667;53.238;10.394;2023-02-10T21:35:08;23.63;;;11.33;;
3309;SDS011;1667;53.238;10.394;2023-02-10T21:40:07;21.53;;;10.17;;
3309;SDS011;1667;53.238;10.394;2023-02-10T21:45:07;40.77;;;14.00;;
3309;SDS011;1667;53.238;10.394;2023-02-10T21:50:07;29.13;;;12.80;;
3309;SDS011;1667;53.238;10.394;2023-02-10T21:55:06;36.03;;;13.83;;
3309;SDS011;1667;53.238;10.394;2023-02-10T22:00:05;29.67;;;14.03;;
3309;SDS011;1667;53.238;10.394;2023-02-10T22:05:06;31.13;;;11.50;;
3309;SDS011;1667;53.238;10.394;2023-02-10T22:10:05;34.40;;;14.33;;
3309;SDS011;1667;53.238;10.394;2023-02-10T22:15:05;35.73;;;14.90;;
3309;SDS011;1667;53.238;10.394;2023-02-10T22:20:06;19.13;;;9.57;;
3309;SDS011;1667;53.238;10.394;2023-02-10T22:25:06;30.87;;;13.70;;
3309;SDS011;1667;53.238;10.394;2023-02-10T22:30:05;26.80;;;13.87;;
3309;SDS011;1667;53.238;10.394;2023-02-10T22:35:06;32.50;;;12.60;;
3309;SDS011;1667;53.238;10.394;2023-02-10T22:40:05;32.77;;;10.57;;
3309;SDS011;1667;53.238;10.394;2023-02-10T22:45:04;29.47;;;12.77;;
3309;SDS011;1667;53.238;10.394;2023-02-10T22:50:03;30.20;;;13.87;;
3309;SDS011;1667;53.238;10.394;2023-02-10T22:55:03;31.43;;;16.93;;
3309;SDS011;1667;53.238;10.394;2023-02-10T23:00:02;40.50;;;17.70;;
3309;SDS011;1667;53.238;10.394;2023-02-10T23:05:01;29.17;;;11.37;;
3309;SDS011;1667;53.238;10.394;2023-02-10T23:10:00;43.50;;;18.10;;
3309;SDS011;1667;53.238;10.394;2023-02-10T23:15:00;31.53;;;15.63;;
3309;SDS011;1667;53.238;10.394;2023-02-10T23:19:59;40.27;;;17.43;;
3309;SDS011;1667;53.238;10.394;2023-02-10T23:24:58;37.40;;;15.00;;
3309;SDS011;1667;53.238;10.394;2023-02-10T23:29:58;38.40;;;13.90;;
3309;SDS011;1667;53.238;10.394;2023-02-10T23:34:57;31.50;;;10.60;;
3309;SDS011;1667;53.238;10.394;2023-02-10T23:39:56;32.47;;;15.70;;
3309;SDS011;1667;53.238;10.394;2023-02-10T23:44:54;35.50;;;17.40;;
3309;SDS011;1667;53.238;10.394;2023-02-10T23:49:54;39.57;;;16.87;;
3309;SDS011;1667;53.238;10.394;2023-02-10T23:54:52;25.20;;;11.73;;
3309;SDS011;1667;53.238;10.394;2023-02-10T23:59:51;25.50;;;13.50;;
